createdAt,value
2018-02-14T00:02:21.585Z,-2.00
2018-02-14T00:04:49.205Z,-1.80
2018-02-14T00:07:16.912Z,-2.10
2018-02-14T00:09:45.348Z,-1.70
2018-02-14T00:12:13.661Z,-1.80
2018-02-14T00:14:41.872Z,-1.80
2018-02-14T00:17:09.537Z,-1.80
2018-02-14T00:19:37.169Z,-1.70
2018-02-14T00:22:05.350Z,-1.80
2018-02-14T00:24:33.005Z,-2.00
2018-02-14T00:27:00.665Z,-1.80
2018-02-14T00:29:29.029Z,-1.90
2018-02-14T00:31:56.690Z,-2.00
2018-02-14T00:34:25.112Z,-2.10
2018-02-14T00:36:52.733Z,-2.00
2018-02-14T00:39:21.266Z,-1.80
2018-02-14T00:41:48.893Z,-2.10
2018-02-14T00:44:16.557Z,-1.80
2018-02-14T00:46:44.776Z,-2.20
2018-02-14T00:49:12.624Z,-2.00
2018-02-14T00:51:40.328Z,-2.10
2018-02-14T00:54:08.709Z,-2.40
2018-02-14T00:56:37.140Z,-2.00
2018-02-14T00:59:04.757Z,-2.20
2018-02-14T01:01:32.413Z,-2.40
2018-02-14T01:04:00.075Z,-2.40
2018-02-14T01:06:28.727Z,-2.10
2018-02-14T01:08:56.348Z,-2.40
2018-02-14T01:11:24.001Z,-2.40
2018-02-14T01:13:51.616Z,-2.00
2018-02-14T01:16:21.071Z,-2.20
2018-02-14T01:18:48.769Z,-2.00
2018-02-14T01:21:16.529Z,-2.30
2018-02-14T01:23:44.144Z,-2.00
2018-02-14T01:26:11.803Z,-2.40
2018-02-14T01:28:39.603Z,-2.30
2018-02-14T01:31:07.261Z,-2.10
2018-02-14T01:33:34.925Z,-1.80
2018-02-14T01:36:02.549Z,-2.10
2018-02-14T01:38:30.201Z,-1.90
2018-02-14T01:40:57.893Z,-2.20
2018-02-14T01:43:25.506Z,-1.90
2018-02-14T01:45:53.925Z,-2.30
2018-02-14T01:48:21.581Z,-2.00
2018-02-14T01:50:49.196Z,-2.30
2018-02-14T01:53:16.865Z,-2.40
2018-02-14T01:55:45.508Z,-2.30
2018-02-14T01:58:13.160Z,-2.60
2018-02-14T02:00:40.789Z,-2.70
2018-02-14T02:03:08.581Z,-2.70
2018-02-14T02:05:36.236Z,-2.50
2018-02-14T02:08:04.106Z,-2.80
2018-02-14T02:10:31.769Z,-2.50
2018-02-14T02:12:59.397Z,-2.80
2018-02-14T02:15:27.105Z,-2.80
2018-02-14T02:17:54.726Z,-3.00
2018-02-14T02:20:22.402Z,-3.00
2018-02-14T02:22:50.020Z,-3.00
2018-02-14T02:25:18.401Z,-3.10
2018-02-14T02:27:46.825Z,-3.10
2018-02-14T02:30:14.449Z,-3.20
2018-02-14T02:32:42.118Z,-2.80
2018-02-14T02:35:09.773Z,-3.00
2018-02-14T02:37:37.636Z,-3.00
2018-02-14T02:40:16.948Z,-3.00
2018-02-14T02:42:45.370Z,-3.20
2018-02-14T02:45:13.035Z,-3.10
2018-02-14T02:47:40.703Z,-3.30
2018-02-14T02:50:08.548Z,-3.20
2018-02-14T02:52:36.215Z,-3.40
2018-02-14T02:55:03.835Z,-3.00
2018-02-14T02:57:32.258Z,-3.30
2018-02-14T03:00:00.028Z,-3.20
2018-02-14T03:02:27.789Z,-3.40
2018-02-14T03:04:55.462Z,-3.20
2018-02-14T03:07:23.124Z,-3.00
2018-02-14T03:09:50.745Z,-3.20
2018-02-14T03:12:18.396Z,-3.40
2018-02-14T03:14:46.628Z,-3.50
2018-02-14T03:17:14.284Z,-3.20
2018-02-14T03:19:41.941Z,-3.50
2018-02-14T03:22:09.568Z,-3.50
2018-02-14T03:24:37.233Z,-3.50
2018-02-14T03:27:05.036Z,-3.40
2018-02-14T03:29:32.688Z,-3.60
2018-02-14T03:32:00.313Z,-3.40
2018-02-14T03:34:28.008Z,-3.60
2018-02-14T03:36:55.680Z,-3.30
2018-02-14T03:39:23.337Z,-3.30
2018-02-14T03:41:50.957Z,-3.30
2018-02-14T03:44:18.748Z,-3.20
2018-02-14T03:46:46.373Z,-3.50
2018-02-14T03:49:14.750Z,-3.40
2018-02-14T03:51:42.429Z,-3.80
2018-02-14T03:54:10.045Z,-3.70
2018-02-14T03:56:38.470Z,-3.80
2018-02-14T03:59:06.130Z,-3.60
2018-02-14T04:01:33.744Z,-3.80
2018-02-14T04:04:02.177Z,-3.60
2018-02-14T04:06:29.831Z,-3.70
2018-02-14T04:08:57.834Z,-3.70
2018-02-14T04:11:25.456Z,-3.60
2018-02-14T04:13:53.217Z,-3.50
2018-02-14T04:16:20.838Z,-3.50
2018-02-14T04:18:48.510Z,-3.70
2018-02-14T04:21:16.160Z,-3.50
2018-02-14T04:23:43.796Z,-3.30
2018-02-14T04:26:11.457Z,-3.30
2018-02-14T04:28:39.115Z,-3.40
2018-02-14T04:31:07.510Z,-3.30
2018-02-14T04:33:36.161Z,-3.50
2018-02-14T04:36:03.791Z,-3.20
2018-02-14T04:38:31.449Z,-3.50
2018-02-14T04:40:59.108Z,-3.30
2018-02-14T04:43:26.783Z,-3.00
2018-02-14T04:45:54.400Z,-3.20
2018-02-14T04:48:22.062Z,-3.00
2018-02-14T04:50:49.685Z,-3.00
2018-02-14T04:53:19.147Z,-3.10
2018-02-14T04:55:46.812Z,-3.10
2018-02-14T04:58:14.483Z,-3.50
2018-02-14T05:00:42.153Z,-3.50
2018-02-14T05:03:09.824Z,-3.40
2018-02-14T05:05:37.790Z,-3.60
2018-02-14T05:08:06.176Z,-3.20
2018-02-14T05:10:33.808Z,-3.50
2018-02-14T05:13:01.484Z,-3.40
2018-02-14T05:15:29.107Z,-3.60
2018-02-14T05:17:56.724Z,-3.30
2018-02-14T05:20:29.889Z,-3.30
2018-02-14T05:22:57.873Z,-3.60
2018-02-14T05:25:25.525Z,-3.30
2018-02-14T05:27:53.477Z,-3.60
2018-02-14T05:30:21.133Z,-3.40
2018-02-14T05:32:49.277Z,-3.30
2018-02-14T05:35:17.992Z,-3.40
2018-02-14T05:37:46.678Z,-3.40
2018-02-14T05:40:15.619Z,-3.60
2018-02-14T05:42:46.267Z,-3.20
2018-02-14T05:45:13.944Z,-3.30
2018-02-14T05:47:41.560Z,-3.30
2018-02-14T05:50:11.184Z,-3.40
2018-02-14T05:52:38.800Z,-3.30
2018-02-14T05:55:06.417Z,-3.80
2018-02-14T05:57:34.080Z,-3.50
2018-02-14T06:00:02.908Z,-3.60
2018-02-14T06:02:30.565Z,-3.50
2018-02-14T06:04:59.258Z,-3.50
2018-02-14T06:07:28.765Z,-3.40
2018-02-14T06:09:57.676Z,-3.60
2018-02-14T06:12:26.394Z,-3.40
2018-02-14T06:14:54.013Z,-3.30
2018-02-14T06:17:22.757Z,-3.60
2018-02-14T06:19:51.279Z,-3.50
2018-02-14T06:22:19.700Z,-3.30
2018-02-14T06:24:49.100Z,-3.40
2018-02-14T06:27:16.817Z,-3.70
2018-02-14T06:29:44.465Z,-3.70
2018-02-14T06:32:13.521Z,-3.60
2018-02-14T06:34:41.503Z,-3.50
2018-02-14T06:37:10.136Z,-3.60
2018-02-14T06:39:38.558Z,-3.60
2018-02-14T06:42:06.224Z,-3.50
2018-02-14T06:44:33.849Z,-3.60
2018-02-14T06:47:01.768Z,-3.40
2018-02-14T06:49:29.529Z,-3.70
2018-02-14T06:51:57.188Z,-3.70
2018-02-14T06:54:24.867Z,-3.60
2018-02-14T06:56:53.262Z,-3.70
2018-02-14T06:59:20.916Z,-3.50
2018-02-14T07:01:49.657Z,-3.70
2018-02-14T07:04:17.338Z,-3.90
2018-02-14T07:06:45.102Z,-3.70
2018-02-14T07:09:12.727Z,-3.60
2018-02-14T07:11:41.077Z,-3.40
2018-02-14T07:14:08.737Z,-3.30
2018-02-14T07:16:36.402Z,-3.40
2018-02-14T07:19:04.057Z,-3.20
2018-02-14T07:21:31.703Z,-3.50
2018-02-14T07:24:00.144Z,-3.30
2018-02-14T07:26:27.860Z,-3.10
2018-02-14T07:28:55.560Z,-3.40
2018-02-14T07:31:23.192Z,-3.20
2018-02-14T07:33:50.855Z,-2.90
2018-02-14T07:36:18.477Z,-2.70
2018-02-14T07:38:46.145Z,-2.50
2018-02-14T07:41:14.551Z,-2.50
2018-02-14T07:43:42.533Z,-2.60
2018-02-14T07:46:10.152Z,-2.20
2018-02-14T07:48:37.769Z,-2.30
2018-02-14T07:51:05.453Z,-2.20
2018-02-14T07:53:33.073Z,-2.00
2018-02-14T07:56:00.968Z,-1.70
2018-02-14T07:58:28.732Z,-1.70
2018-02-14T08:00:56.395Z,-1.60
2018-02-14T08:03:24.200Z,-1.30
2018-02-14T08:05:51.929Z,-1.40
2018-02-14T08:10:51.184Z,-1.40
2018-02-14T08:13:18.800Z,-1.10
2018-02-14T08:15:46.465Z,-1.10
2018-02-14T08:18:14.810Z,-1.10
2018-02-14T08:20:42.573Z,-1.00
2018-02-14T08:23:10.189Z,-0.70
2018-02-14T08:25:37.815Z,-0.80
2018-02-14T08:28:05.478Z,-0.70
2018-02-14T08:30:33.093Z,-0.60
2018-02-14T08:33:00.750Z,-0.50
2018-02-14T08:35:28.369Z,-0.40
2018-02-14T08:37:56.024Z,-0.20
2018-02-14T08:40:23.677Z,-0.10
2018-02-14T08:42:51.307Z,-0.20
2018-02-14T08:45:18.993Z,0.20
2018-02-14T08:47:46.635Z,-0.10
2018-02-14T08:50:14.917Z,0.10
2018-02-14T08:52:42.570Z,0.30
2018-02-14T08:55:10.233Z,0.80
2018-02-14T08:57:37.837Z,0.60
2018-02-14T09:00:05.449Z,0.60
2018-02-14T09:02:33.312Z,0.40
2018-02-14T09:05:00.971Z,0.80
2018-02-14T09:07:28.581Z,0.80
2018-02-14T09:09:56.242Z,1.00
2018-02-14T09:12:25.333Z,1.10
2018-02-14T09:14:52.949Z,1.10
2018-02-14T09:17:20.609Z,1.40
2018-02-14T09:19:48.255Z,1.40
2018-02-14T09:22:15.905Z,1.50
2018-02-14T09:24:43.589Z,1.40
2018-02-14T09:27:11.211Z,1.40
2018-02-14T09:29:39.564Z,1.40
2018-02-14T09:32:07.236Z,1.40
2018-02-14T09:34:34.884Z,1.60
2018-02-14T09:37:02.585Z,1.60
2018-02-14T09:39:31.101Z,1.90
2018-02-14T09:41:59.465Z,2.20
2018-02-14T09:44:27.124Z,2.30
2018-02-14T09:46:54.765Z,2.00
2018-02-14T09:49:22.430Z,2.40
2018-02-14T09:51:50.044Z,2.50
2018-02-14T09:54:17.708Z,2.50
2018-02-14T09:56:46.141Z,2.90
2018-02-14T09:59:13.753Z,2.70
2018-02-14T10:01:41.409Z,2.90
2018-02-14T10:04:09.064Z,2.90
2018-02-14T10:06:37.792Z,2.90
2018-02-14T10:09:05.570Z,2.90
2018-02-14T10:11:33.229Z,2.90
2018-02-14T10:14:00.890Z,2.90
2018-02-14T10:16:28.508Z,3.00
2018-02-14T10:18:56.942Z,3.50
2018-02-14T10:21:24.564Z,3.20
2018-02-14T10:23:52.369Z,3.40
2018-02-14T10:26:20.216Z,3.40
2018-02-14T10:28:47.871Z,3.50
2018-02-14T10:31:15.520Z,3.50
2018-02-14T10:33:43.134Z,3.70
2018-02-14T10:36:12.929Z,3.70
2018-02-14T10:38:41.487Z,3.40
2018-02-14T10:41:09.140Z,3.30
2018-02-14T10:43:36.785Z,3.40
2018-02-14T10:46:04.688Z,3.40
2018-02-14T10:48:32.350Z,3.80
2018-02-14T10:51:00.013Z,3.50
2018-02-14T10:53:28.372Z,3.70
2018-02-14T10:55:56.026Z,3.70
2018-02-14T10:58:23.633Z,3.70
2018-02-14T11:00:57.593Z,3.60
2018-02-14T11:03:31.012Z,3.50
2018-02-14T11:06:04.336Z,3.80
2018-02-14T11:08:32.713Z,4.00
2018-02-14T11:11:01.132Z,4.00
2018-02-14T11:13:29.129Z,3.90
2018-02-14T11:15:56.740Z,3.90
2018-02-14T11:18:24.396Z,4.00
2018-02-14T11:20:52.049Z,4.00
2018-02-14T11:23:19.665Z,4.00
2018-02-14T11:25:47.318Z,3.90
2018-02-14T11:28:15.170Z,4.30
2018-02-14T11:30:42.821Z,4.40
2018-02-14T11:33:10.609Z,4.30
2018-02-14T11:35:38.266Z,4.20
2018-02-14T11:38:05.881Z,4.20
2018-02-14T11:40:34.294Z,4.30
2018-02-14T11:43:01.946Z,4.20
2018-02-14T11:45:29.565Z,4.30
2018-02-14T11:47:57.229Z,4.50
2018-02-14T11:50:25.608Z,4.30
2018-02-14T11:52:53.985Z,4.40
2018-02-14T11:55:23.086Z,4.60
2018-02-14T11:57:50.705Z,4.40
2018-02-14T12:00:18.369Z,4.80
2018-02-14T12:02:46.478Z,4.30
2018-02-14T12:05:14.133Z,4.40
2018-02-14T12:07:41.751Z,4.80
2018-02-14T12:10:09.396Z,4.60
2018-02-14T12:12:37.020Z,4.50
2018-02-14T12:15:04.677Z,4.70
2018-02-14T12:17:32.333Z,4.70
2018-02-14T12:19:59.953Z,4.80
2018-02-14T12:22:27.725Z,4.80
2018-02-14T12:24:55.341Z,4.70
2018-02-14T12:27:23.019Z,4.70
2018-02-14T12:29:50.783Z,4.70
2018-02-14T12:32:18.438Z,4.70
2018-02-14T12:34:46.310Z,4.70
2018-02-14T12:37:13.921Z,4.70
2018-02-14T12:39:41.574Z,4.80
2018-02-14T12:42:09.194Z,5.20
2018-02-14T12:44:36.848Z,4.70
2018-02-14T12:47:05.085Z,4.70
2018-02-14T12:49:32.737Z,4.80
2018-02-14T12:52:00.353Z,4.70
2018-02-14T12:54:28.005Z,5.20
2018-02-14T12:56:55.621Z,4.70
2018-02-14T12:59:23.270Z,4.70
2018-02-14T13:01:51.688Z,5.00
2018-02-14T13:04:19.306Z,5.20
2018-02-14T13:06:46.961Z,5.00
2018-02-14T13:09:14.616Z,5.00
2018-02-14T13:11:42.235Z,4.90
2018-02-14T13:14:09.857Z,4.90
2018-02-14T13:16:38.840Z,5.00
2018-02-14T13:19:06.587Z,4.90
2018-02-14T13:21:34.842Z,5.30
2018-02-14T13:24:02.481Z,5.10
2018-02-14T13:26:30.129Z,4.90
2018-02-14T13:28:57.749Z,5.00
2018-02-14T13:31:25.406Z,4.90
2018-02-14T13:33:53.788Z,4.90
2018-02-14T13:36:22.201Z,5.00
2018-02-14T13:38:49.866Z,5.30
2018-02-14T13:41:17.485Z,5.00
2018-02-14T13:43:45.101Z,4.90
2018-02-14T13:46:12.877Z,5.00
2018-02-14T13:48:40.524Z,5.00
2018-02-14T13:51:08.763Z,5.00
2018-02-14T13:53:36.386Z,4.60
2018-02-14T13:56:04.043Z,4.70
2018-02-14T13:58:31.665Z,4.60
2018-02-14T14:00:59.317Z,4.90
2018-02-14T14:03:26.973Z,4.90
2018-02-14T14:05:54.585Z,4.70
2018-02-14T14:08:22.244Z,4.90
2018-02-14T14:10:50.621Z,4.60
2018-02-14T14:13:19.196Z,4.70
2018-02-14T14:15:46.861Z,4.90
2018-02-14T14:18:14.529Z,4.70
2018-02-14T14:20:42.867Z,4.70
2018-02-14T14:23:11.001Z,4.70
2018-02-14T14:25:38.657Z,4.70
2018-02-14T14:28:07.085Z,4.60
2018-02-14T14:30:34.737Z,4.40
2018-02-14T14:33:02.354Z,4.50
2018-02-14T14:35:30.011Z,4.70
2018-02-14T14:37:58.665Z,4.60
2018-02-14T14:40:26.327Z,4.70
2018-02-14T14:42:53.982Z,4.60
2018-02-14T14:45:21.861Z,4.60
2018-02-14T14:47:50.229Z,4.40
2018-02-14T14:50:18.912Z,4.30
2018-02-14T14:52:46.525Z,4.50
2018-02-14T14:55:14.173Z,4.40
2018-02-14T14:57:41.792Z,4.30
2018-02-14T15:00:09.449Z,4.20
2018-02-14T15:02:37.109Z,4.10
2018-02-14T15:05:05.313Z,4.30
2018-02-14T15:07:33.746Z,4.50
2018-02-14T15:10:01.374Z,4.20
2018-02-14T15:12:29.184Z,4.00
2018-02-14T15:14:56.806Z,4.00
2018-02-14T15:17:24.466Z,4.00
2018-02-14T15:19:52.082Z,4.00
2018-02-14T15:22:20.541Z,4.10
2018-02-14T15:24:48.392Z,3.90
2018-02-14T15:27:16.048Z,3.70
2018-02-14T15:29:43.707Z,3.70
2018-02-14T15:32:11.553Z,3.70
2018-02-14T15:34:39.208Z,3.60
2018-02-14T15:37:06.825Z,3.70
2018-02-14T15:39:34.492Z,3.70
2018-02-14T15:42:02.111Z,3.70
2018-02-14T15:44:29.796Z,3.50
2018-02-14T15:46:57.793Z,3.40
2018-02-14T15:49:26.137Z,3.50
2018-02-14T15:51:54.715Z,3.30
2018-02-14T15:54:22.333Z,3.30
2018-02-14T15:56:49.970Z,3.50
2018-02-14T15:59:17.617Z,3.20
2018-02-14T16:01:45.277Z,3.50
2018-02-14T16:04:12.908Z,2.90
2018-02-14T16:06:40.569Z,3.20
2018-02-14T16:09:08.202Z,3.10
2018-02-14T16:11:35.817Z,3.20
2018-02-14T16:14:03.474Z,3.20
2018-02-14T16:16:32.642Z,2.80
2018-02-14T16:19:00.253Z,2.90
2018-02-14T16:21:28.068Z,2.90
2018-02-14T16:23:55.714Z,2.90
2018-02-14T16:26:23.332Z,2.90
2018-02-14T16:28:51.981Z,2.90
2018-02-14T16:31:19.648Z,2.60
2018-02-14T16:33:47.272Z,2.60
2018-02-14T16:36:14.961Z,2.40
2018-02-14T16:38:42.934Z,2.60
2018-02-14T16:41:10.589Z,2.40
2018-02-14T16:43:38.246Z,2.40
2018-02-14T16:46:05.862Z,2.50
2018-02-14T16:48:33.755Z,2.40
2018-02-14T16:51:01.372Z,1.90
2018-02-14T16:53:29.024Z,2.30
2018-02-14T16:55:57.400Z,2.00
2018-02-14T16:58:25.809Z,2.20
2018-02-14T17:00:53.424Z,2.10
2018-02-14T17:03:22.590Z,2.20
2018-02-14T17:05:50.245Z,2.10
2018-02-14T17:08:17.902Z,1.70
2018-02-14T17:10:45.520Z,1.70
2018-02-14T17:13:13.966Z,1.60
2018-02-14T17:15:41.645Z,1.90
2018-02-14T17:18:10.060Z,1.40
2018-02-14T17:20:37.696Z,1.40
2018-02-14T17:23:06.439Z,1.40
2018-02-14T17:25:34.108Z,1.30
2018-02-14T17:28:01.721Z,1.40
2018-02-14T17:30:30.134Z,1.40
2018-02-14T17:32:57.894Z,1.60
2018-02-14T17:35:25.596Z,1.40
2018-02-14T17:37:53.985Z,1.40
2018-02-14T17:40:22.397Z,1.30
2018-02-14T17:42:50.175Z,1.60
2018-02-14T17:45:18.396Z,1.50
2018-02-14T17:47:47.121Z,1.40
2018-02-14T17:50:16.953Z,1.40
2018-02-14T17:52:45.908Z,1.40
2018-02-14T17:55:13.818Z,1.30
2018-02-14T17:57:42.001Z,1.60
2018-02-14T18:00:10.411Z,1.30
2018-02-14T18:02:39.033Z,1.40
2018-02-14T18:05:06.644Z,1.60
2018-02-14T18:07:34.962Z,1.40
2018-02-14T18:10:02.689Z,1.30
2018-02-14T18:12:30.394Z,1.40
2018-02-14T18:14:58.058Z,1.30
2018-02-14T18:17:25.701Z,1.30
2018-02-14T18:19:53.465Z,1.10
2018-02-14T18:22:21.666Z,1.10
2018-02-14T18:24:49.428Z,1.40
2018-02-14T18:27:31.318Z,1.20
2018-02-14T18:29:59.382Z,1.20
2018-02-14T18:32:27.006Z,1.10
2018-02-14T18:34:54.696Z,1.40
2018-02-14T18:37:22.358Z,1.10
2018-02-14T18:39:49.976Z,1.30
2018-02-14T18:42:17.625Z,1.00
2018-02-14T18:44:46.277Z,1.10
2018-02-14T18:47:13.897Z,1.30
2018-02-14T18:49:41.549Z,1.20
2018-02-14T18:52:09.345Z,1.10
2018-02-14T18:54:37.822Z,1.10
2018-02-14T18:57:06.114Z,1.10
2018-02-14T18:59:34.327Z,1.20
2018-02-14T19:02:01.961Z,1.10
2018-02-14T19:04:29.597Z,1.10
2018-02-14T19:06:57.368Z,1.10
2018-02-14T19:11:47.760Z,1.10
2018-02-14T19:14:16.626Z,1.00
2018-02-14T19:16:44.276Z,0.90
2018-02-14T19:19:12.194Z,0.90
2018-02-14T19:21:40.248Z,1.00
2018-02-14T19:24:08.249Z,0.80
2018-02-14T19:26:35.905Z,1.10
2018-02-14T19:29:04.285Z,0.80
2018-02-14T19:31:31.941Z,0.80
2018-02-14T19:33:59.561Z,0.90
2018-02-14T19:36:27.455Z,0.80
2018-02-14T19:38:55.078Z,0.70
2018-02-14T19:41:22.770Z,0.80
2018-02-14T19:43:50.545Z,0.80
2018-02-14T19:46:18.225Z,0.70
2018-02-14T19:48:46.664Z,0.80
2018-02-14T19:51:14.419Z,0.70
2018-02-14T19:53:42.040Z,0.90
2018-02-14T19:56:09.701Z,0.80
2018-02-14T19:58:40.562Z,1.10
2018-02-14T20:01:09.363Z,1.00
2018-02-14T20:03:37.023Z,0.80
2018-02-14T20:06:04.683Z,0.70
2018-02-14T20:08:33.507Z,0.70
2018-02-14T20:11:01.765Z,0.60
2018-02-14T20:13:29.426Z,0.60
2018-02-14T20:15:57.084Z,0.50
2018-02-14T20:18:24.697Z,0.60
2018-02-14T20:20:52.369Z,0.70
2018-02-14T20:23:20.598Z,0.60
2018-02-14T20:25:48.220Z,0.60
2018-02-14T20:28:16.466Z,0.70
2018-02-14T20:30:44.116Z,0.70
2018-02-14T20:33:11.772Z,0.60
2018-02-14T20:35:39.424Z,0.50
2018-02-14T20:38:07.041Z,0.80
2018-02-14T20:40:34.693Z,0.60
2018-02-14T20:43:02.361Z,0.60
2018-02-14T20:45:30.593Z,0.40
2018-02-14T20:47:58.213Z,0.50
2018-02-14T20:50:25.873Z,0.60
2018-02-14T20:52:54.236Z,0.40
2018-02-14T20:55:21.858Z,0.40
2018-02-14T20:57:49.754Z,0.30
2018-02-14T21:00:17.742Z,0.30
2018-02-14T21:02:45.362Z,0.20
2018-02-14T21:05:13.013Z,0.30
2018-02-14T21:07:40.633Z,0.40
2018-02-14T21:10:08.285Z,0.20
2018-02-14T21:12:35.901Z,0.50
2018-02-14T21:15:03.558Z,0.50
2018-02-14T21:17:31.225Z,0.30
2018-02-14T21:19:58.844Z,0.60
2018-02-14T21:22:26.506Z,0.60
2018-02-14T21:24:54.150Z,0.50
2018-02-14T21:27:21.768Z,0.20
2018-02-14T21:29:49.425Z,0.40
2018-02-14T21:32:17.293Z,0.20
2018-02-14T21:34:44.956Z,0.40
2018-02-14T21:37:12.571Z,0.50
2018-02-14T21:39:40.186Z,0.50
2018-02-14T21:42:07.844Z,0.50
2018-02-14T21:44:35.622Z,0.60
2018-02-14T21:47:03.280Z,0.40
2018-02-14T21:49:30.910Z,0.50
2018-02-14T21:51:58.568Z,0.40
2018-02-14T21:54:26.228Z,0.50
2018-02-14T21:56:53.844Z,0.50
2018-02-14T21:59:21.501Z,0.50
2018-02-14T22:01:49.726Z,0.50
2018-02-14T22:04:17.377Z,0.50
2018-02-14T22:06:45.000Z,0.70
2018-02-14T22:09:12.709Z,0.40
2018-02-14T22:11:40.327Z,0.20
2018-02-14T22:14:08.160Z,0.20
2018-02-14T22:16:36.405Z,0.30
2018-02-14T22:19:04.082Z,0.40
2018-02-14T22:21:32.154Z,0.20
2018-02-14T22:23:59.764Z,0.50
2018-02-14T22:26:27.419Z,0.30
2018-02-14T22:28:55.033Z,0.30
2018-02-14T22:31:22.700Z,0.30
2018-02-14T22:33:50.317Z,0.40
2018-02-14T22:36:17.968Z,0.30
2018-02-14T22:38:45.585Z,0.40
2018-02-14T22:41:14.013Z,0.40
2018-02-14T22:43:42.472Z,0.20
2018-02-14T22:46:15.207Z,0.30
2018-02-14T22:48:42.821Z,0.10
2018-02-14T22:51:10.469Z,0.30
2018-02-14T22:53:38.849Z,0.20
2018-02-14T22:56:07.469Z,0.30
2018-02-14T22:58:35.272Z,0.20
2018-02-14T23:01:02.932Z,0.30
2018-02-14T23:03:32.053Z,0.10
2018-02-14T23:06:00.468Z,0.30
2018-02-14T23:08:28.087Z,0.20
2018-02-14T23:10:55.748Z,0.40
2018-02-14T23:13:23.365Z,0.30
2018-02-14T23:15:51.425Z,0.30
2018-02-14T23:18:19.215Z,0.30
2018-02-14T23:20:46.838Z,0.30
2018-02-14T23:23:15.099Z,0.30
2018-02-14T23:25:42.753Z,0.10
2018-02-14T23:28:10.360Z,0.10
2018-02-14T23:30:38.024Z,0.40
2018-02-14T23:33:05.640Z,0.40
2018-02-14T23:35:33.330Z,0.30
2018-02-14T23:38:00.979Z,0.40
2018-02-14T23:40:28.644Z,0.10
2018-02-14T23:42:56.261Z,0.30
2018-02-14T23:45:24.682Z,0.30
2018-02-14T23:47:52.297Z,0.20
2018-02-14T23:50:21.157Z,0.30
2018-02-14T23:52:49.584Z,0.30
2018-02-14T23:55:17.731Z,0.60
2018-02-14T23:57:45.345Z,0.40
